Tiempo atmosférico en la estación meteorológica de Cabo Busto, Asturias (63 m.)



Fecha
DESCASC
Temp. máxima en grados centígrados (hora)
DESCASC
Temp. mínima en grados centígrados (hora)
DESCASC
Temp. media en grados centígrados
DESCASC
Racha de viento máxima en m/sg (hora)
DESCASC
Velocidad máxima media en intervalos de 10 minutos(hora)
DESCASC
Precipitaciones diarias en mm
DESCASC
Precipitaciones de 00:00 a 06:00 en mm
DESCASC
Precipitaciones de 06:00 a 12:00 en mm
DESCASC
Precipitaciones de 12:00 a 18:00 en mm
DESCASC
Precipitaciones de 18:00 a 24:00 en mm
DESCASC
16-06-2019 18.6 (16:20) 11.9 (07:20) 15.3 10.83 (13:40) 5.28 (15:50) 0 0 0 0 0
15-06-2019 20.8 (12:10) 13.3 (02:30) 17 12.22 (13:10) 10.28 (13:10) 0 0 0 0 0
14-06-2019 17.9 (15:10) 8.9 (06:40) 13.4 6.11 (07:10) 4.72 (05:10) 0 0 0 0 0
13-06-2019 17 (13:40) 11.7 (00:00) 14.3 5.83 (15:20) 3.61 (07:00) 0 0 0 0 0
12-06-2019 18.9 (14:20) 11.8 (00:00) 15.3 13.33 (10:00) 9.17 (10:00) 1.4 1.4 0 0 0
11-06-2019 18.3 (17:50) 11.5 (00:00) 14.9 16.39 (02:40) 11.39 (02:50) 1.8 0.8 1 0 0
10-06-2019 18.9 (13:50) 10 (00:00) 14.4 13.33 (22:40) 11.11 (22:40) 1.8 0 0 0 1.8
09-06-2019 14.4 (16:40) 11.7 (00:00) 13 -- (--) -- (--) 5.4 0 1 4.4 0
08-06-2019 17.2 (13:00) 8.3 (00:00) 12.8 -- (--) -- (--) 0.2 0 0 0 0.2
07-06-2019 17.2 (13:00) 12.2 (00:00) 14.7 -- (--) -- (--) 4 0 0 3.6 0.4
06-06-2019 18.8 (19:50) 8.9 (00:00) 13.8 22.22 (22:40) 16.39 (20:40) 1.2 0 0 0.8 0.4
05-06-2019 16.3 (17:40) 10.9 (00:00) 13.6 18.61 (08:20) 10.83 (10:50) 8.4 0.6 0.2 0.6 7
04-06-2019 19.7 (14:30) 13.6 (00:00) 16.7 21.94 (11:00) 15 (10:30) 1.2 0 0.6 0 0.6
03-06-2019 18.7 (12:00) 16.5 (00:00) 17.6 6.67 (15:10) 3.06 (01:40) 0 0 0 0 0
02-06-2019 20.2 (17:10) 13.6 (00:00) 16.9 7.22 (23:10) 4.44 (23:10) 0 0 0 0 0
01-06-2019 25 (21:00) 16.8 (00:00) 20.9 6.39 (07:00) 5 (07:50) 0 0 0 0 0
31-05-2019 23.1 (18:40) 13.2 (00:00) 18.2 10.28 (16:50) 7.22 (17:00) 0 0 0 0 0
30-05-2019 18.9 (16:30) 12.1 (00:00) 15.5 11.94 (18:40) 8.89 (18:30) 0 0 0 0 0
29-05-2019 17.6 (11:40) 10.5 (00:00) 14.1 10 (14:30) 5.83 (19:30) 0 0 0 0 0
28-05-2019 18.3 (12:10) 11 (00:00) 14.6 6.39 (13:50) 5 (14:00) 0 0 0 0 0
27-05-2019 16.5 (13:30) 13.3 (00:00) 14.9 8.89 (11:40) 5.83 (11:40) 3 0 2.4 0.6 0
26-05-2019 18.1 (15:20) 10.1 (00:00) 14.1 6.11 (03:40) 5 (07:00) 0 0 0 0 0
25-05-2019 18.1 (15:00) 12.2 (00:00) 15.2 6.67 (06:30) 3.61 (06:20) 0 0 0 0 0
24-05-2019 19.8 (17:00) 13.3 (00:00) 16.5 9.44 (00:30) 7.5 (05:50) 0 0 0 0 0
23-05-2019 19.9 (12:20) 11.6 (00:00) 15.8 -- (--) -- (--) 0 0 0 0 0
22-05-2019 17.3 (20:10) 9.6 (00:00) 13.4 -- (--) -- (--) 0 0 0 0 0

Gráficas

Temp. máximas Temp. mínimas Temp. medias Precipitaciones Rachas de viento máximas Velocidades máximas media en intervalos de 10 minutos

Datos horarios

Fecha y hora oficial Temperatura (ºC) Velocidad del viento (km/h) Dirección del viento Racha (km/h) Dirección de racha Precipitación (mm) Presión (hPa) Tendencia (hPa) Humedad (%)
2019-06-20 23:00:00 15.7 6 Oeste 22 Este 0 1011.5 0.4 86
2019-06-20 22:00:00 15.3 13 Nordeste 33 Nordeste 0 1011.4 0.3 85
2019-06-20 21:00:00 16.6 6 Noroeste 22 Nordeste 0 1011.3 0.4 82
2019-06-20 20:00:00 16.5 7 Norte 21 Nordeste 0 1011.1 0.4 83
2019-06-20 19:00:00 16.3 7 Noroeste 16 Nordeste 0 1011.1 0.2 83
2019-06-20 18:00:00 16.2 6 Oeste 18 Sudeste 0 1010.9 0 84
2019-06-20 17:00:00 16.4 7 Oeste 20 Oeste 0 1010.7 -0.2 84
2019-06-20 16:00:00 16.6 6 Oeste 20 Oeste 0 1010.9 0 84
2019-06-20 15:00:00 16.6 8 Oeste 18 Oeste 0 1010.9 0.2 85
2019-06-20 14:00:00 16.5 6 Oeste 19 Nordeste 0.2 1010.9 0.4 87
2019-06-20 13:00:00 15.8 8 Noroeste 21 Nordeste 0 1010.9 0.6 89
2019-06-20 12:00:00 15.6 12 Nordeste 28 Nordeste 0 1010.7 0.4 90
2019-06-20 11:00:00 15.5 6 Norte 20 Este 0 1010.5 0.4 90
2019-06-20 10:00:00 15.2 10 Nordeste 23 Nordeste 0 1010.3 0.4 90
2019-06-20 09:00:00 15.2 11 Nordeste 24 Nordeste 0 1010.3 0.4 90
2019-06-20 08:00:00 15.2 5 Noroeste 26 Nordeste 0 1010.1 0.2 90
2019-06-20 07:00:00 15.4 8 Norte 19 Nordeste 0 1009.9 -0.3 89
2019-06-20 06:00:00 15.5 3 Sur 9 Oeste 0 1009.9 -0.5 89
2019-06-20 05:00:00 15.7 2 Sur 6 Norte 0 1009.9 -0.5 88
2019-06-20 04:00:00 15.5 3 Sudeste 9 Sur 0 1010.2 -0.3 89
2019-06-20 03:00:00 15.4 5 Sudeste 8 Sudeste 0 1010.4 0 89
2019-06-20 02:00:00 15.5 5 Sudeste 7 Sur 0 1010.4 0.1 88
2019-06-20 01:00:00 15.5 4 Sudeste 6 Sur 0 1010.5 0.7 88
2019-06-20 00:00:00 15.6 5 Sudeste 9 Sudeste 0 1010.4 0.6 88
2019-06-19 23:00:00 15.9 5 Sur 6 Sur 0 1010.3 0.9 87
2019-06-19 22:00:00 16.1 4 Oeste 8 Oeste 0.2 1009.8 0.7 87
2019-06-19 21:00:00 16.2 3 Noroeste 12 Oeste 0.2 1009.8 1.1 87
2019-06-19 20:00:00 16 9 Oeste 22 Oeste 1 1009.4 1.1 87
2019-06-19 19:00:00 16.4 9 Oeste 28 Oeste 1 1009.1 1.1 85
2019-06-19 18:00:00 17.5 8 Oeste 18 Oeste 0 1008.7 0.9 80
2019-06-19 17:00:00 17.9 10 Oeste 21 Oeste 0 1008.3 0.9 79
2019-06-19 16:00:00 18.4 12 Oeste 27 Oeste 0 1008 1 79
2019-06-19 15:00:00 18.5 12 Oeste 30 Oeste 0 1007.8 1.5 78
2019-06-19 14:00:00 18.2 19 Oeste 32 Oeste 0 1007.4 1.4 79
2019-06-19 13:00:00 18 21 Oeste 37 Oeste 0 1007 1.2 82
2019-06-19 12:00:00 18.8 18 Oeste 30 Oeste 0 1006.3 0.8 70
2019-06-19 11:00:00 18.2 16 Oeste 27 Oeste 0 1006 1.3 71
2019-06-19 10:00:00 18.3 10 Oeste 21 Sudoeste 0 1005.8 1.5 70
2019-06-19 09:00:00 18.2 13 Oeste 31 Oeste 0 1005.5 1.3 69
2019-06-19 08:00:00 17.6 21 Oeste 28 Oeste 0 1004.7 0.7 72
2019-06-19 07:00:00 17.6 22 Oeste 26 Oeste 0 1004.3 0.7 72
2019-06-19 06:00:00 16 5 Oeste 18 Oeste 0 1004.2 0.6 81
2019-06-19 05:00:00 15 9 Sur 15 Sur 0 1004 0.3 84
2019-06-19 04:00:00 16.3 6 Sudoeste 18 Sudoeste 0 1003.6 -0.2 76
2019-06-19 03:00:00 16.6 12 Oeste 18 Oeste 0 1003.6 0 82
2019-06-19 02:00:00 15.7 9 Sur 15 Sur 0 1003.7 0.2 84
2019-06-19 01:00:00 16.2 6 Sur 24 Sudeste 0 1003.8 0.4 83
2019-06-19 00:00:00 16.5 10 Sudeste 20 Sudeste 0 1003.6 0 83
2019-06-18 23:00:00 16.6 14 Sudeste 23 Sudeste 0 1003.5 0.1 82
2019-06-18 22:00:00 16.3 16 Sudeste 23 Sudeste 0 1003.4 0.8 83
2019-06-18 21:00:00 17 4 Nordeste 53 Oeste 0.2 1003.6 1.5 80
2019-06-18 20:00:00 17 4 Sudeste 18 Nordeste 0.4 1003.4 2 82
2019-06-18 19:00:00 17.1 6 Noroeste 24 Nordeste 0.2 1002.6 0.6 81
2019-06-18 18:00:00 17.4 10 Norte 39 Nordeste 0 1002.1 0 75
2019-06-18 17:00:00 18.3 19 Nordeste 34 Este 0 1001.4 -0.9 76
2019-06-18 16:00:00 18.2 14 Nordeste 23 Nordeste 0 1002 -0.3 77
2019-06-18 15:00:00 18.4 8 Nordeste 17 Este 0 1002.1 -1.2 77
2019-06-18 14:00:00 18.8 6 Nordeste 12 Oeste 0 1002.3 -0.8 76
2019-06-18 13:00:00 19.3 4 Oeste 21 Oeste 0 1002.3 -0.5 79
2019-06-18 12:00:00 17.4 11 Oeste 23 Oeste 0 1003.3 0.9 84
2019-06-18 11:00:00 17.2 12 Oeste 22 Oeste 0 1003.1 0.8 84
2019-06-18 10:00:00 16.6 13 Oeste 22 Oeste 0 1002.8 0.2 86
2019-06-18 09:00:00 15.9 10 Oeste 16 Oeste 0 1002.4 -0.2 86
2019-06-18 08:00:00 15.4 4 Nordeste 15 Este 0 1002.3 -0.9 88
2019-06-18 07:00:00 15.2 9 Este 23 Nordeste 0 1002.6 -1.6 88
2019-06-18 06:00:00 15.2 10 Este 18 Sudeste 0 1002.6 -2.3 87
2019-06-18 05:00:00 15.3 7 Sudeste 10 Sudeste 0 1003.2 -2.2 86
2019-06-18 04:00:00 15.7 6 Sudoeste 11 Oeste 0 1004.2 -0.8 86
2019-06-18 03:00:00 15.8 2 Noroeste 13 Noroeste 0 1004.9 -1.4 85
2019-06-18 02:00:00 16.1 3 Norte 23 Este 0 1005.4 -1 85
2019-06-18 01:00:00 16.1 16 Este 25 Nordeste 0 1005 -1.6 85
2019-06-18 00:00:00 16.1 7 Este 22 Este 0 1006.3 -0.8 84
2019-06-17 23:00:00 16.2 12 Este 21 Este 0 1006.4 -1 84
2019-06-17 22:00:00 16.4 6 Este 9 Este 0 1006.6 -0.6 82
2019-06-17 21:00:00 16.6 4 Este 10 Oeste 0 1007.1 -0.8 81
2019-06-17 20:00:00 16.8 3 Norte 14 Nordeste 0 1007.4 -0.5 81
2019-06-17 19:00:00 17 6 Este 10 Este 0 1007.2 -0.9 80
2019-06-17 18:00:00 17 3 Norte 13 Nordeste 0 1007.9 -0.1 79
2019-06-17 17:00:00 17.4 4 Norte 11 Nordeste 0 1007.9 -0.3 78
2019-06-17 16:00:00 17.6 4 Norte 17 Nordeste 0 1008.1 -0.4 78
2019-06-17 15:00:00 18.5 7 Nordeste 17 Nordeste 0 1008 -0.6 76
2019-06-17 14:00:00 18.2 10 Nordeste 18 Nordeste 0 1008.2 -0.8 77
2019-06-17 13:00:00 17.8 10 Nordeste 18 Nordeste 0 1008.5 -0.7 77
2019-06-17 12:00:00 17.7 8 Nordeste 13 Nordeste 0 1008.6 -0.8 75
2019-06-17 11:00:00 17 4 Nordeste 7 Nordeste 0 1009 -0.5 77
2019-06-17 10:00:00 16.7 3 Norte 7 Oeste 0 1009.2 -0.1 79
2019-06-17 09:00:00 16.3 0 Calma 7 Oeste 0 1009.4 0 81
2019-06-17 08:00:00 16 2 Norte 14 Nordeste 0 1009.5 -0.3 80
2019-06-17 07:00:00 15.8 8 Nordeste 17 Nordeste 0 1009.3 -0.9 80
2019-06-17 06:00:00 15.8 7 Nordeste 18 Nordeste 0 1009.4 -1.4 81
2019-06-17 05:00:00 15.8 10 Nordeste 22 Este 0 1009.8 -1.2 81
2019-06-17 04:00:00 15.8 13 Este 20 Este 0 1010.2 -1.4 82
2019-06-17 03:00:00 15.8 13 Este 20 Este 0 1010.8 -1.3 83
2019-06-17 02:00:00 16 12 Nordeste 24 Nordeste 0 1011 -1.2 85
2019-06-17 01:00:00 15.9 15 Este 26 Nordeste 0 1011.6 -0.1 85
2019-06-17 00:00:00 15.9 14 Nordeste 27 Nordeste 0 1012.1 0.4 84
2019-06-16 23:00:00 16.2 15 Nordeste 28 Nordeste 0 1012.2 0.5 84
2019-06-16 22:00:00 16.5 14 Nordeste 29 Nordeste 0 1011.7 0.2 81
2019-06-16 21:00:00 17.1 12 Nordeste 31 Nordeste 0 1011.7 0.1 78
2019-06-16 20:00:00 17.4 15 Nordeste 29 Nordeste 0 1011.7 0 77
2019-06-16 19:00:00 18.3 13 Nordeste 28 Nordeste 0 1011.5 -0.3 75
2019-06-16 18:00:00 18.4 14 Nordeste 31 Nordeste 0 1011.6 -0.3 73
2019-06-16 17:00:00 18.3 15 Nordeste 33 Nordeste 0 1011.7 -0.4 72
2019-06-16 16:00:00 18.3 19 Nordeste 36 Nordeste 0 1011.8 -0.6 72
2019-06-16 15:00:00 18.3 16 Nordeste 36 Nordeste 0 1011.9 -0.9 72
2019-06-16 14:00:00 18.1 18 Nordeste 39 Nordeste 0 1012.1 -1 70
2019-06-16 13:00:00 18.1 18 Nordeste 31 Nordeste 0 1012.4 -0.8 70
2019-06-16 12:00:00 17.7 15 Nordeste 26 Nordeste 0 1012.8 -0.3 66
2019-06-16 11:00:00 17.6 8 Nordeste 16 Nordeste 0 1013.1 0.1 67
2019-06-16 10:00:00 17.1 6 Nordeste 13 Nordeste 0 1013.2 0.3 63
2019-06-16 09:00:00 15.4 7 Sudeste 15 Sudeste 0 1013.1 0.1 73
2019-06-16 08:00:00 12.5 12 Sudeste 18 Sudeste 0 1013 -0.2 82
2019-06-16 07:00:00 12.1 14 Sudeste 17 Sudeste 0 1012.9 -0.8 82
2019-06-16 06:00:00 12.4 13 Sudeste 16 Sudeste 0 1013 -1 83
2019-06-16 05:00:00 13.2 8 Sudeste 9 Sudeste 0 1013.2 -1.4 80
2019-06-16 04:00:00 14.1 6 Sudeste 8 Sudeste 0 1013.7 -1.3 77
2019-06-16 03:00:00 14.5 6 Sudeste 8 Sudeste 0 1014 -1.1 77
2019-06-16 02:00:00 14.9 5 Sudeste 6 Sudeste 0 1014.6 -0.4 74
2019-06-16 01:00:00 15.4 4 Sudeste 8 Norte 0 1015 0.4 73
2019-06-16 00:00:00 15.7 3 Este 6 Este 0 1015.1 0.4 72
2019-06-15 23:00:00 15.7 2 Este 5 Este 0 1015 0.3 70
2019-06-15 22:00:00 15.9 2 Norte 8 Nordeste 0 1014.6 0.1 70
2019-06-15 21:00:00 16.3 4 Noroeste 10 Noroeste 0 1014.7 0.2 70
2019-06-15 20:00:00 16.8 6 Noroeste 12 Noroeste 0 1014.7 0.5 69
2019-06-15 19:00:00 18.1 6 Norte 14 Noroeste 0 1014.5 0.8 66
2019-06-15 18:00:00 18.8 7 Noroeste 22 Oeste 0 1014.5 1.4 64
2019-06-15 17:00:00 18.7 17 Noroeste 35 Oeste 0 1014.2 1.4 65
2019-06-15 16:00:00 19 15 Noroeste 32 Noroeste 0 1013.7 1.3 63
2019-06-15 15:00:00 18.4 25 Oeste 36 Noroeste 0 1013.1 0.3 63
2019-06-15 14:00:00 17.8 27 Oeste 44 Oeste 0 1012.8 0.3 60
2019-06-15 13:00:00 17.4 31 Oeste 42 Oeste 0 1012.4 0 62
2019-06-15 12:00:00 19.9 17 Oeste -- -- 0 1012.8 0.7 48
2019-06-15 11:00:00 17.8 19 Oeste 35 Oeste 0 1012.5 0.8 53
2019-06-15 10:00:00 16.6 11 Oeste 19 Oeste 0 1012.4 1.2 67
2019-06-15 09:00:00 15.4 6 Oeste 18 Oeste 0 1012.1 1.5 68
2019-06-15 08:00:00 14.7 8 Oeste 17 Oeste 0 1011.7 1.2 70
2019-06-15 07:00:00 14.6 10 Oeste 18 Oeste 0 1011.2 0.6 72
2019-06-15 06:00:00 14.3 10 Oeste 15 Oeste 0 1010.6 -0.1 73
2019-06-15 05:00:00 13.9 8 Sudoeste 15 Sudoeste 0 1010.5 -0.2 73
2019-06-15 04:00:00 13.5 9 Sur 15 Sudoeste 0 1010.6 -0.2 76
2019-06-15 03:00:00 13.5 10 Sur 17 Sudeste 0 1010.7 0.2 78
2019-06-15 02:00:00 13.5 11 Sudeste 15 Sudeste 0 1010.7 0.6 77
2019-06-15 01:00:00 14.1 8 Sur 11 Sudoeste 0 1010.8 1.5 74
2019-06-15 00:00:00 14.8 5 Sudoeste 11 Oeste 0 1010.5 1.4 70
2019-06-14 23:00:00 14.9 5 Sudoeste 18 Oeste 0 1010.1 1.6 70
2019-06-14 22:00:00 15.1 9 Oeste 19 Oeste 0 1009.3 1.3 73
2019-06-14 21:00:00 15.6 5 Oeste 13 Noroeste 0 1009.1 1.5 72
2019-06-14 20:00:00 16 11 Oeste 20 Oeste 0 1008.5 1.1 71
2019-06-14 19:00:00 17.8 10 Noroeste 16 Noroeste 0 1008 0.7 67
2019-06-14 18:00:00 17.7 6 Norte 19 Noroeste 0 1007.6 0.4 67
2019-06-14 17:00:00 17.7 8 Noroeste 21 Noroeste 0 1007.4 0.2 67
2019-06-14 16:00:00 17.8 10 Noroeste 18 Noroeste 0 1007.3 0.1 67
2019-06-14 15:00:00 17.8 9 Noroeste 19 Oeste 0 1007.2 0.3 68
2019-06-14 14:00:00 17.3 11 Noroeste 15 Oeste 0 1007.2 0.2 69
2019-06-14 13:00:00 16.6 12 Noroeste 19 Oeste 0 1007.2 0.5 74
2019-06-14 12:00:00 16.5 11 Oeste 17 Oeste 0 1006.9 0.5 73
2019-06-14 11:00:00 15.5 7 Oeste 14 Oeste 0 1007 1.1 79
2019-06-14 10:00:00 13.9 6 Sudoeste 12 Oeste 0 1006.7 0.8 82
2019-06-14 09:00:00 12.7 9 Sudoeste 14 Sur 0 1006.4 0.8 85
2019-06-14 08:00:00 10 11 Sur 22 Sur 0 1005.9 0.4 87
2019-06-14 07:00:00 9 15 Sur 20 Sur 0 1005.9 -0.1 87
2019-06-14 06:00:00 9 15 Sur 21 Sur 0 1005.6 -0.5 87
2019-06-14 05:00:00 9.4 16 Sur 19 Sur 0 1005.5 -1 87
2019-06-14 04:00:00 10.1 14 Sudeste 18 Sudeste 0 1006 -0.9 87
2019-06-14 03:00:00 10.4 13 Sudeste 17 Sudeste 0 1006.1 -0.7 87
2019-06-14 02:00:00 10.8 14 Sur 17 Sur 0 1006.5 -0.3 86
2019-06-14 01:00:00 11.4 10 Sudeste 13 Sudeste 0 1006.9 0.5 84
2019-06-14 00:00:00 12.3 5 Sudeste 8 Nordeste 0 1006.8 0.4 81
2019-06-13 23:00:00 14 5 Nordeste 13 Nordeste 0 1006.8 0.8 76
2019-06-13 22:00:00 14.8 6 Nordeste 17 Nordeste 0 1006.4 0.5 75
2019-06-13 21:00:00 15.6 7 Nordeste 17 Nordeste 0 1006.4 0.6 73
2019-06-13 20:00:00 15.7 8 Nordeste 17 Nordeste 0 1006 0.3 72
2019-06-13 19:00:00 16 6 Nordeste 14 Nordeste 0 1005.9 0.4 71
2019-06-13 18:00:00 15.6 5 Nordeste 12 Nordeste 0 1005.8 0.3 71
2019-06-13 17:00:00 15.1 6 Nordeste 13 Este 0 1005.7 0.2 71
2019-06-13 16:00:00 15.6 5 Sudoeste 21 Norte 0 1005.5 0.4 65
2019-06-13 15:00:00 15.6 6 Oeste 18 Este 0 1005.5 0.3 69
2019-06-13 14:00:00 15.6 7 Noroeste 17 Norte 0 1005.5 0.5 71
2019-06-13 13:00:00 15.8 4 Noroeste 17 Noroeste 0 1005.1 0.3 72
2019-06-13 12:00:00 16 10 Noroeste 15 Noroeste 0 1005.2 0.3 72
2019-06-13 11:00:00 14.6 12 Noroeste 17 Noroeste 0 1005 0.3 77
2019-06-13 10:00:00 15.1 9 Oeste 17 Oeste 0 1004.8 -0.1 76
2019-06-13 09:00:00 12.9 8 Sudeste 15 Sudeste 0 1004.9 0.2 81
2019-06-13 08:00:00 12.1 11 Sudeste 17 Sudeste 0 1004.7 -0.2 83
2019-06-13 07:00:00 11.8 13 Sudeste 17 Sudeste 0 1004.9 -0.3 83
2019-06-13 06:00:00 12 10 Sudeste 13 Sudeste 0 1004.7 -0.8 83
2019-06-13 05:00:00 12.2 6 Sudeste 10 Sudeste 0 1004.9 -1.2 82
2019-06-13 04:00:00 12.5 6 Sudeste 9 Sudeste 0 1005.2 -1.4 81
2019-06-13 03:00:00 13.1 3 Norte 15 Nordeste 0 1005.5 -1.5 78
2019-06-13 02:00:00 12.7 8 Sudeste 10 Sur 0 1006.1 -1.2 81
2019-06-13 01:00:00 12.9 8 Sudeste 10 Sudeste 0 1006.6 -0.6 80
2019-06-13 00:00:00 13.1 7 Sudeste 11 Sudeste 0 1007 -0.2 77
2019-06-12 23:00:00 13.6 5 Sur 11 Oeste 0 1007.3 0 75
2019-06-12 22:00:00 14 7 Noroeste 18 Noroeste 0 1007.2 -0.1 70
2019-06-12 21:00:00 14.1 14 Noroeste 26 Noroeste 0 1007.2 -0.3 70
2019-06-12 20:00:00 14.9 17 Noroeste 26 Oeste 0 1007.3 -0.2 71
2019-06-12 19:00:00 15.8 16 Oeste 31 Noroeste 0 1007.3 -0.3 68
2019-06-12 18:00:00 16.6 21 Oeste 34 Noroeste 0 1007.5 -0.4 66
2019-06-12 17:00:00 16.4 26 Oeste 33 Oeste 0 1007.5 -0.9 68
2019-06-12 16:00:00 16.1 28 Oeste 36 Oeste 0 1007.6 -0.8 67
2019-06-12 15:00:00 17.8 21 Oeste 33 Oeste 0 1007.9 -0.6 66
2019-06-12 14:00:00 18.5 17 Oeste 42 Oeste 0 1008.4 0 64
2019-06-12 13:00:00 17 19 Oeste 37 Oeste 0 1008.4 0.1 63
2019-06-12 12:00:00 14.4 23 Oeste 43 Oeste 0 1008.5 0.3 67
2019-06-12 11:00:00 13.4 30 Oeste 45 Oeste 0 1008.4 0.3 71
2019-06-12 10:00:00 13 33 Oeste 48 Oeste 0 1008.3 0.1 71
2019-06-12 09:00:00 12.7 32 Oeste 44 Oeste 0 1008.2 0 71
2019-06-12 08:00:00 12.4 29 Oeste 42 Oeste 0 1008.1 -0.6 72
2019-06-12 07:00:00 12.1 30 Oeste 40 Oeste 0 1008.2 -1 76
2019-06-12 06:00:00 12 28 Oeste 41 Oeste 0 1008.2 -1.4 78
2019-06-12 05:00:00 11.9 25 Oeste 42 Oeste 0.2 1008.7 -1.5 80
2019-06-12 04:00:00 12.2 29 Oeste 45 Oeste 1.2 1009.2 -1.3 80
2019-06-12 03:00:00 13 25 Oeste 38 Oeste 0 1009.6 -1.5 73
2019-06-12 02:00:00 13.1 27 Oeste 44 Oeste 0 1010.2 -0.9 76
2019-06-12 01:00:00 13.4 28 Oeste 43 Oeste 0 1010.5 -0.4 77
2019-06-12 00:00:00 13.1 29 Oeste 44 Oeste 0 1011.1 -0.6 76
2019-06-11 23:00:00 13.2 34 Oeste 48 Oeste 0 1011.1 -0.7 75
2019-06-11 22:00:00 14.5 19 Oeste 39 Oeste 0 1010.9 -1 73
2019-06-11 21:00:00 15 23 Oeste 41 Oeste 0 1011.7 -0.4 69
2019-06-11 20:00:00 16.2 27 Oeste 42 Noroeste 0 1011.8 -0.3 65
2019-06-11 19:00:00 16.8 24 Oeste 42 Oeste 0 1011.9 -0.5 67
2019-06-11 18:00:00 17.3 24 Oeste 40 Oeste 0 1012.1 -0.5 66
2019-06-11 17:00:00 17.7 23 Oeste 40 Oeste 0 1012.1 -0.6 66
2019-06-11 16:00:00 17.3 18 Oeste 49 Oeste 0 1012.4 -0.1 68
2019-06-11 15:00:00 16.8 18 Oeste 39 Oeste 0 1012.6 0.7 69
2019-06-11 14:00:00 15.8 24 Oeste 40 Oeste 0 1012.7 0.9 68
2019-06-11 13:00:00 14.9 32 Oeste 44 Oeste 0 1012.5 0.5 69
2019-06-11 12:00:00 13.6 40 Noroeste 48 Noroeste 0 1011.9 0.3 71
2019-06-11 11:00:00 13.9 29 Oeste 39 Oeste 0 1011.8 0.9 70
2019-06-11 10:00:00 13.8 7 Oeste 53 Noroeste 0.6 1012 1.5 74
2019-06-11 09:00:00 13.5 14 Oeste -- -- 0.4 1011.6 1.5 72
2019-06-11 08:00:00 12.9 30 Oeste 43 Noroeste 0 1010.9 0.6 72
2019-06-11 07:00:00 12.9 27 Noroeste 41 Noroeste 0 1010.5 -0.3 73
2019-06-11 06:00:00 12.8 35 Noroeste 44 Oeste 0 1010.1 -0.2 71
2019-06-11 05:00:00 12.7 27 Noroeste 35 Oeste 0 1010.3 -0.9 78
2019-06-11 04:00:00 12.1 24 Oeste 47 Noroeste 0 1010.8 -0.7 86
2019-06-11 03:00:00 11.9 38 Noroeste 59 Noroeste 0.8 1010.3 -1.4 88
2019-06-11 02:00:00 13.1 17 Oeste 32 Oeste 0 1011.2 -0.6 82
2019-06-11 01:00:00 13.2 24 Noroeste 32 Noroeste 0 1011.5 0.1 81
2019-06-11 00:00:00 13 23 Noroeste 36 Noroeste 0 1011.7 0 83
2019-06-10 23:00:00 12.2 11 Norte 48 Noroeste 1.2 1011.8 0 80
2019-06-10 22:00:00 14.1 17 Oeste 31 Oeste 0.6 1011.4 -0.6 79
2019-06-10 21:00:00 14.4 12 Oeste 27 Oeste 0 1011.7 -0.3 73
2019-06-10 20:00:00 14.3 22 Oeste 32 Noroeste 0 1011.8 -0.5 71
2019-06-10 19:00:00 14.5 17 Oeste 32 Noroeste 0 1012 -0.5 73
2019-06-10 18:00:00 15.9 21 Oeste 31 Oeste 0 1012 -0.9 72
2019-06-10 17:00:00 16.3 22 Oeste 28 Noroeste 0 1012.3 -1.1 71
2019-06-10 16:00:00 16.9 22 Oeste 28 Noroeste 0 1012.5 -1 69
2019-06-10 15:00:00 18.6 13 Oeste 26 Oeste 0 1012.9 -0.8 67
2019-06-10 14:00:00 18.7 14 Oeste 25 Oeste 0 1013.4 -0.2 65
2019-06-10 13:00:00 18.3 13 Oeste 27 Oeste 0 1013.5 -0.4 66
2019-06-10 12:00:00 16.3 16 Oeste 28 Oeste 0 1013.7 -0.1 70
2019-06-10 11:00:00 16.8 14 Oeste 27 Oeste 0 1013.6 -0.2 75
2019-06-10 10:00:00 15.3 9 Oeste 19 Oeste 0 1013.9 0.1 80
2019-06-10 09:00:00 12.8 7 Sur 16 Sur 0 1013.8 0.2 86
2019-06-10 08:00:00 10.6 14 Sur 17 Sur 0 1013.8 0 87
2019-06-10 07:00:00 10.5 12 Sur 18 Sur 0 1013.8 0 87
2019-06-10 06:00:00 10.4 14 Sur 19 Sur 0 1013.6 -0.4 88
2019-06-10 05:00:00 10.3 12 Sur 15 Sur 0 1013.8 -0.9 88
2019-06-10 04:00:00 10 12 Sur 18 Sudeste 0 1013.8 -1.5 87
2019-06-10 03:00:00 10.9 12 Sudeste 19 Sudeste 0 1014 -1.4 87
2019-06-10 02:00:00 11.6 13 Sudeste 15 Sudeste 0 1014.7 -0.3 88
2019-06-10 01:00:00 11.6 11 Sudeste 13 Sur 0 1015.3 0.5 88
2019-06-10 00:00:00 11.7 9 Sudeste 11 Sur 0 1015.4 0.7 86
2019-06-09 23:00:00 12.7 7 Sudeste 9 Sudeste 0 1015 0.3 84
2019-06-09 22:00:00 13.7 0 Calma 4 Noroeste 0 1014.8 0.3 82
2019-06-09 21:00:00 14 0 Calma 6 Sur 0 1014.7 0.5 82
2019-06-09 20:00:00 13.8 2 Sur 6 Sudeste 0 1014.7 0.6 82
2019-06-09 19:00:00 13.4 5 Este 16 Este 0 1014.5 0.5 82
2019-06-09 18:00:00 14.2 2 Oeste 8 Oeste 0 1014.2 0.1 82
2019-06-09 17:00:00 14.2 5 Oeste 9 Oeste 0 1014.1 0.3 84
2019-06-09 16:00:00 13.4 2 Sur 11 Nordeste 0.2 1014 0.5 85
2019-06-09 15:00:00 12.6 6 Nordeste 20 Nordeste 1.8 1014.1 1.2 86
2019-06-09 14:00:00 13.6 3 Oeste 12 Noroeste 2 1013.8 1.1 86
2019-06-09 13:00:00 13.7 4 Nordeste 21 Este 0.4 1013.5 1.2 84
2019-06-09 12:00:00 13.5 12 Nordeste 36 Nordeste 0 1012.9 0.8 83
2019-06-09 11:00:00 13.6 17 Este 26 Este 0 1012.7 0.7 78
2019-06-09 10:00:00 13.7 11 Este 23 Este 0 1012.3 0.4 85
2019-06-09 09:00:00 13.2 6 Este 21 Nordeste 0.2 1012.1 0.2 88
2019-06-09 08:00:00 13.1 12 Este 31 Este 0.2 1012 -0.2 88
2019-06-09 07:00:00 13.3 11 Nordeste 26 Nordeste 0.6 1011.9 -0.4 86
2019-06-09 06:00:00 13.8 8 Este 20 Nordeste 0 1011.9 -0.9 80
2019-06-09 05:00:00 13.9 7 Este 20 Este 0 1012.2 -1.1 78
2019-06-09 04:00:00 13.9 13 Este -- -- 0 1012.3 -1.5 78
2019-06-09 03:00:00 14 -- -- -- -- 0 1012.8 -1.7 78
2019-06-09 02:00:00 14 -- -- -- -- 0 1013.3 -1.2 79
2019-06-09 01:00:00 14 -- -- -- -- 0 1013.8 -0.3 78
2019-06-09 00:00:00 13.7 -- -- -- -- 0 1014.5 -0.2 78
2019-06-08 23:00:00 13.7 18 Este 28 Nordeste 0 1014.5 -0.3 80
2019-06-08 22:00:00 13.9 18 Este 37 Nordeste 0 1014.1 -0.6 80
2019-06-08 21:00:00 14.1 15 Nordeste 36 Nordeste 0.2 1014.7 -0.7 78
2019-06-08 20:00:00 14.5 15 Nordeste 34 Este 0 1014.8 -0.5 74
2019-06-08 19:00:00 14.9 15 Nordeste 29 Nordeste 0 1014.7 -0.8 71
2019-06-08 18:00:00 15.6 8 Norte 27 Nordeste 0 1015.4 -0.1 68
2019-06-08 17:00:00 16.4 12 Nordeste 26 Nordeste 0 1015.3 -0.3 65
2019-06-08 16:00:00 16.1 9 Norte 27 Nordeste 0 1015.5 -0.5 64
2019-06-08 15:00:00 16.7 7 Oeste 20 Nordeste 0 1015.5 -0.6 60
2019-06-08 14:00:00 16.5 6 Oeste 19 Este 0 1015.6 -0.7 61
2019-06-08 13:00:00 17.2 6 Sudoeste 18 Sudoeste 0 1016 -0.6 60
2019-06-08 12:00:00 15.9 10 Nordeste -- -- 0 1016.1 -0.3 62
2019-06-08 11:00:00 14.8 -- -- -- -- 0 1016.3 -0.1 65
2019-06-08 10:00:00 14 9 Sudeste 24 Sudeste 0 1016.6 0.3 72
2019-06-08 09:00:00 11 16 Sudeste 23 Sudeste 0 1016.4 0.2 80
2019-06-08 08:00:00 9.2 20 Sudeste 25 Sur 0 1016.4 0.2 83
2019-06-08 07:00:00 8.4 19 Sudeste 25 Sudeste 0 1016.3 0.2 85
2019-06-08 06:00:00 8.5 19 Sudeste 24 Sur 0 1016.2 0.1 85
2019-06-08 05:00:00 9 18 Sur 24 Sur 0 1016.2 0.1 85
2019-06-08 04:00:00 9.3 17 Sur 22 Sur 0 1016.1 -0.2 85
2019-06-08 03:00:00 10 15 Sur 20 Sur 0 1016.1 0.1 84
2019-06-08 02:00:00 10.6 14 Sur 20 Sur 0 1016.1 0.5 86
2019-06-08 01:00:00 11.3 12 Sur 17 Sur 0 1016.3 1.5 85
2019-06-08 00:00:00 12.5 12 Sur 17 Oeste 0 1016 1.9 83
2019-06-07 23:00:00 13 7 Sudoeste 17 Sudoeste 0 1015.6 2 81
2019-06-07 22:00:00 13.3 8 Sur 40 Oeste 0.2 1014.8 1.8 79
2019-06-07 21:00:00 14.3 16 Oeste -- -- 0 1014.1 1.3 72
2019-06-07 20:00:00 14.9 -- -- -- -- 0 1013.6 1.7 70
2019-06-07 19:00:00 14.8 -- -- -- -- 0.2 1013 1.9 76
2019-06-07 18:00:00 13.9 -- -- -- -- 1.8 1012.8 2.2 80
2019-06-07 17:00:00 13.5 -- -- -- -- 1 1011.9 2.4 78
2019-06-07 16:00:00 16.5 16 Oeste 38 Oeste 0 1011.1 2.8 64
2019-06-07 15:00:00 13.7 18 Oeste -- -- 0.8 1010.6 3.7 76
2019-06-07 14:00:00 15.9 18 Oeste 71 Oeste 0 1009.5 3.5 55
2019-06-07 13:00:00 17.2 32 Oeste 66 Oeste 0 1008.3 3.6 52
2019-06-07 12:00:00 15.9 45 Oeste 77 Oeste 0 1006.9 3.8 54
2019-06-07 11:00:00 14.6 47 Oeste 77 Oeste 0 1006 4.3 58
2019-06-07 10:00:00 15.2 50 Oeste 77 Oeste 0 1004.7 4.4 55
2019-06-07 09:00:00 14.2 55 Oeste 85 Sudoeste 0 1003.1 4.6 58
2019-06-07 08:00:00 13 63 Oeste 80 Oeste 0 1001.7 3.5 62
2019-06-07 07:00:00 12.4 60 Oeste -- -- 0 1000.3 3 68
2019-06-07 06:00:00 12.6 65 Oeste 93 Sudoeste 0 998.5 1.6 62
2019-06-07 05:00:00 12.6 58 Oeste 83 Oeste 0 998.2 2.9 63
2019-06-07 04:00:00 12.3 67 Oeste 90 Oeste 0 997.3 2.7 65
2019-06-07 03:00:00 12.3 51 Oeste 87 Oeste 0 996.9 2.3 62
2019-06-07 02:00:00 12.6 52 Oeste 84 Oeste 0 995.3 1.2 61
2019-06-07 01:00:00 13.2 64 Oeste 84 Oeste 0 994.6 1.6 64
2019-06-07 00:00:00 13.9 56 Oeste 73 Sudoeste 0 994.6 1.7 59
2019-06-06 23:00:00 14.3 47 Oeste 80 Oeste 0 994.1 2 58
2019-06-06 22:00:00 15.4 44 Oeste 74 Oeste 0 993 0.5 57
2019-06-06 21:00:00 17 40 Oeste 73 Oeste 0 992.9 0.2 58
2019-06-06 20:00:00 18.2 39 Oeste 61 Oeste 0 992.1 -1.5 57
2019-06-06 19:00:00 16.8 22 Sur 39 Sudoeste 0.4 992.5 -2.1 70
2019-06-06 18:00:00 17.2 8 Sudeste 27 Sur 0.2 992.7 -1.7 70
2019-06-06 17:00:00 15.7 8 Sur 22 Sur 0.6 993.6 -1.9 75
2019-06-06 16:00:00 16.1 7 Sudeste 37 Nordeste 0 994.6 -2.9 73
2019-06-06 15:00:00 15.8 26 Nordeste 53 Nordeste 0 994.4 -5 70
2019-06-06 14:00:00 15.7 28 Nordeste 48 Nordeste 0 995.5 -5.8 66
2019-06-06 13:00:00 15.4 22 Nordeste 40 Nordeste 0 997.5 -4.8 66
2019-06-06 12:00:00 14.6 21 Este 35 Este 0 999.4 -3.8 66
2019-06-06 11:00:00 14.2 7 Este 20 Este 0 1001.3 -2.5 64
2019-06-06 10:00:00 14.5 7 Este 17 Sudeste 0 1002.3 -2.2 61
2019-06-06 09:00:00 12.9 15 Sudeste 22 Sudeste 0 1003.2 -1.9 66
2019-06-06 08:00:00 11 16 Sudeste 23 Sudeste 0 1003.8 -2 72
2019-06-06 07:00:00 10.1 16 Sudeste 21 Sudeste 0 1004.5 -1.8 75
2019-06-06 06:00:00 9.6 15 Sudeste 20 Sudeste 0 1005.1 -1.6 79
2019-06-06 05:00:00 9 4 Sur 17 Sur 0 1005.8 -1.4 80
2019-06-06 04:00:00 9.9 4 Sudeste 16 Sur 0 1006.3 -1.5 79
2019-06-06 03:00:00 9.7 11 Sur 20 Sudeste 0 1006.7 -1.3 80
2019-06-06 02:00:00 12 15 Sur 24 Sur 0 1007.2 -0.9 67
2019-06-06 01:00:00 11.6 9 Sudoeste 19 Sudoeste 0 1007.8 -0.1 75
2019-06-06 00:00:00 11 10 Sudoeste 16 Sudeste 0.2 1008 0.1 84
2019-06-05 23:00:00 11.5 12 Sudeste 22 Sudeste 0 1008.1 0.2 84
2019-06-05 22:00:00 11.6 15 Sudeste 27 Sudeste 0.2 1007.9 0.3 85
2019-06-05 21:00:00 11.6 12 Sur 17 Sur 2.8 1007.9 0.5 85
2019-06-05 20:00:00 12.3 17 Oeste 36 Oeste 2.2 1007.9 0.1 82
2019-06-05 19:00:00 13.2 8 Sudoeste 30 Oeste 1.6 1007.6 -0.4 79
2019-06-05 18:00:00 14.8 14 Oeste 21 Oeste 0 1007.4 -0.3 68
2019-06-05 17:00:00 14.2 11 Oeste 25 Oeste 0.2 1007.8 0.3 72
2019-06-05 16:00:00 13.2 13 Sudoeste 36 Oeste 0.2 1008 1.1 73
2019-06-05 15:00:00 13.8 16 Sudoeste 40 Oeste 0.2 1007.7 0.8 71
2019-06-05 14:00:00 14.6 28 Oeste 46 Oeste 0 1007.5 1 68
2019-06-05 13:00:00 15.4 32 Oeste 59 Oeste 0 1006.9 0.9 72
2019-06-05 12:00:00 15 18 Oeste 45 Oeste 0 1006.9 1.3 73
2019-06-05 11:00:00 12.5 34 Oeste 61 Oeste 0.2 1006.5 1.5 77
2019-06-05 10:00:00 14.4 24 Oeste 40 Sudoeste 0 1006 1.2 67
2019-06-05 09:00:00 13.2 22 Oeste 67 Oeste 0 1005.6 1.1 72
2019-06-05 08:00:00 13.2 27 Oeste 39 Oeste 0 1005 0.5 72
2019-06-05 07:00:00 13 18 Oeste 32 Oeste 0 1004.8 0 72
2019-06-05 06:00:00 12.9 25 Oeste 38 Oeste 0 1004.5 -0.5 75
2019-06-05 05:00:00 13 21 Oeste 30 Oeste 0 1004.5 -0.8 74
2019-06-05 04:00:00 13 19 Oeste 33 Oeste 0 1004.8 -0.7 75
2019-06-05 03:00:00 13.3 26 Oeste 32 Oeste 0 1005 -0.7 76
2019-06-05 02:00:00 13.4 17 Oeste 32 Oeste 0 1005.3 0 78
2019-06-05 01:00:00 13 15 Sudoeste 34 Oeste 0.6 1005.5 0.9 84
2019-06-05 00:00:00 13.7 22 Oeste 41 Oeste 0.6 1005.7 1 83
2019-06-04 23:00:00 14.7 19 Oeste 39 Oeste 0 1005.3 0.6 78
2019-06-04 22:00:00 15 19 Oeste 43 Oeste 0 1004.6 -0.1 77
2019-06-04 21:00:00 15.3 27 Oeste 45 Noroeste 0 1004.7 0.2 73
2019-06-04 20:00:00 15.8 21 Oeste 47 Oeste 0 1004.7 0.6 77
2019-06-04 19:00:00 16 17 Oeste 39 Oeste 0 1004.7 0.9 73
2019-06-04 18:00:00 17.1 18 Oeste 42 Oeste 0 1004.5 0.9 71
2019-06-04 17:00:00 19 27 Oeste 49 Oeste 0 1004.1 0.6 66
2019-06-04 16:00:00 18.4 31 Oeste 50 Noroeste 0 1003.8 0.7 68
2019-06-04 15:00:00 19.4 27 Oeste 44 Oeste 0 1003.6 1.1 67
2019-06-04 14:00:00 18.8 17 Oeste 45 Oeste 0 1003.5 2.2 69
2019-06-04 13:00:00 16.6 25 Oeste 58 Oeste 0 1003.1 2.9 76
2019-06-04 12:00:00 15.5 33 Oeste 65 Oeste 0.6 1002.5 2.3 84
2019-06-04 11:00:00 16.2 42 Oeste 79 Oeste 0 1001.3 0.6 76
2019-06-04 10:00:00 18.9 30 Oeste 43 Oeste 0 1000.2 -1 65
2019-06-04 09:00:00 16.4 -- -- -- -- 0 1000.2 -0.9 83
2019-06-04 08:00:00 15.5 18 Sudeste 24 Sudeste 0 1000.7 -1 89
2019-06-04 07:00:00 14.4 6 Sur 11 Noroeste 0 1001.2 -1.4 89
2019-06-04 06:00:00 15.1 0 Calma 10 Sudeste 0 1001.1 -2.4 90
2019-06-04 05:00:00 15.5 5 Sudeste 13 Oeste 0 1001.7 -2.8 90
2019-06-04 04:00:00 15.7 10 Oeste 13 Oeste 0 1002.6 -2.5 90
2019-06-04 03:00:00 15.9 9 Oeste 22 Oeste 0 1003.5 -2.3 91
2019-06-04 02:00:00 16.1 10 Oeste 20 Oeste 0 1004.5 -1.5 90
2019-06-04 01:00:00 16.3 8 Noroeste 18 Oeste 0 1005.1 -1.2 90
2019-06-04 00:00:00 16.5 4 Noroeste 8 Noroeste 0 1005.8 -1 90
2019-06-03 23:00:00 16.5 0 Calma 8 Nordeste 0 1006 -1 89
2019-06-03 22:00:00 16.5 3 Nordeste 8 Nordeste 0 1006.3 -1 89
2019-06-03 21:00:00 16.7 2 Noroeste 8 Nordeste 0 1006.8 -0.6 88
2019-06-03 20:00:00 16.8 4 Noroeste 10 Nordeste 0 1007 -0.7 88
2019-06-03 19:00:00 16.9 4 Noroeste 11 Nordeste 0 1007.3 -0.8 87
2019-06-03 18:00:00 17.1 6 Nordeste 23 Nordeste 0 1007.4 -1.3 87
2019-06-03 17:00:00 17.4 8 Norte 24 Norte 0 1007.7 -1.5 87
2019-06-03 16:00:00 17.3 6 Noroeste 24 Nordeste 0 1008.1 -1.6 87
2019-06-03 15:00:00 17 7 Oeste 20 Sur 0 1008.7 -1.1 87
2019-06-03 14:00:00 17.1 6 Sudoeste 22 Norte 0 1009.2 -0.5 86
2019-06-03 13:00:00 17.6 5 Oeste 17 Nordeste 0 1009.7 -0.1 85
2019-06-03 12:00:00 18.7 8 Nordeste 17 Nordeste 0 1009.8 0.3 85
2019-06-03 11:00:00 17.6 9 Nordeste 18 Nordeste 0 1009.7 0.1 87
2019-06-03 10:00:00 17.3 6 Nordeste 16 Nordeste 0 1009.8 0.5 87
2019-06-03 09:00:00 17.5 7 Este 10 Este 0 1009.5 0.5 87
2019-06-03 08:00:00 16.9 4 Este 8 Este 0 1009.6 0.3 88
2019-06-03 07:00:00 16.7 3 Norte 8 Nordeste 0 1009.3 -0.4 88
2019-06-03 06:00:00 16.7 4 Sudeste 14 Noroeste 0 1009 -1.2 88
2019-06-03 05:00:00 16.7 4 Norte 6 Noroeste 0 1009.3 -1.3 88
2019-06-03 04:00:00 16.7 0 Calma 9 Oeste 0 1009.7 -1.2 87
2019-06-03 03:00:00 16.8 3 Noroeste 12 Sudoeste 0 1010.2 -0.7 87
2019-06-03 02:00:00 16.9 7 Sudoeste 13 Oeste 0 1010.6 -0.4 87
2019-06-03 01:00:00 17.2 9 Oeste 18 Oeste 0 1010.9 0.5 86
2019-06-03 00:00:00 17.3 7 Oeste 26 Oeste 0 1010.9 0.8 85
2019-06-02 23:00:00 17.8 15 Oeste 26 Oeste 0 1011 1 82
2019-06-02 22:00:00 18.2 11 Oeste 21 Oeste 0 1010.4 0.3 79
2019-06-02 21:00:00 18.9 7 Oeste 17 Oeste 0 1010.1 0 74
2019-06-02 20:00:00 19.3 5 Noroeste 8 Noroeste 0 1010 0.3 68
2019-06-02 19:00:00 19.1 4 Este 9 Este 0 1010.1 0.6 69
2019-06-02 18:00:00 19.3 4 Este 14 Nordeste 0 1010.1 0.4 69
2019-06-02 17:00:00 20.1 4 Nordeste 10 Nordeste 0 1009.7 -0.5 67
2019-06-02 16:00:00 19.1 4 Nordeste 9 Nordeste 0 1009.5 -0.8 73
2019-06-02 15:00:00 18.6 5 Nordeste 10 Oeste 0 1009.7 -0.2 76
2019-06-02 14:00:00 17.4 6 Oeste 13 Noroeste 0 1010.2 0.5 82
2019-06-02 13:00:00 17.3 5 Oeste 14 Oeste 0 1010.3 1.5 83
2019-06-02 12:00:00 16.5 8 Oeste 19 Noroeste 0 1009.9 0.9 85
2019-06-02 11:00:00 16 14 Oeste 19 Noroeste 0 1009.7 0.9 85
2019-06-02 10:00:00 18.2 7 Nordeste 13 Nordeste 0 1008.8 0.5 80
2019-06-02 09:00:00 16.8 4 Oeste 18 Oeste 0 1009 0.6 84
2019-06-02 08:00:00 15.8 4 Norte 14 Este 0 1008.8 -0.3 85
2019-06-02 07:00:00 14.7 6 Este 14 Sudeste 0 1008.3 -0.8 80
2019-06-02 06:00:00 14.9 5 Sudeste 13 Oeste 0 1008.4 -1.2 82
2019-06-02 05:00:00 16.3 12 Oeste 16 Oeste 0 1009.1 -0.7 80
2019-06-02 04:00:00 15.8 6 Sur 14 Oeste 0 1009.1 -1 71
2019-06-02 03:00:00 17.5 9 Oeste 15 Oeste 0 1009.6 -0.7 70
2019-06-02 02:00:00 18.2 11 Sudoeste 16 Sudoeste 0 1009.8 -0.6 68
2019-06-02 01:00:00 18 10 Sur 19 Sudeste 0 1010.1 0.4 64
2019-06-02 00:00:00 19.6 9 Sur 19 Oeste 0 1010.3 0.8 53
2019-06-01 23:00:00 19.6 16 Oeste 21 Oeste 0 1010.4 0.9 69
2019-06-01 22:00:00 23.7 13 Oeste 17 Oeste 0 1009.7 0.1 32
2019-06-01 21:00:00 25 12 Oeste 15 Oeste 0 1009.5 -0.4 35
2019-06-01 20:00:00 24 6 Oeste 13 Oeste 0 1009.5 -0.5 40
2019-06-01 19:00:00 23.5 8 Oeste 18 Oeste 0 1009.6 -0.6 55
2019-06-01 18:00:00 23.8 15 Oeste 19 Oeste 0 1009.9 -0.5 60
2019-06-01 17:00:00 24.3 13 Oeste 16 Oeste 0 1010 -0.7 55
2019-06-01 16:00:00 24.2 7 Oeste 13 Oeste 0 1010.2 -0.3 50
2019-06-01 15:00:00 24.1 8 Oeste 18 Oeste 0 1010.4 0 51
2019-06-01 14:00:00 23.6 12 Oeste 17 Oeste 0 1010.7 0.1 54
2019-06-01 13:00:00 23.9 7 Oeste 10 Oeste 0 1010.5 0.1 52
2019-06-01 12:00:00 23.6 8 Oeste 14 Oeste 0 1010.4 0.2 50
2019-06-01 11:00:00 22.9 9 Oeste 15 Oeste 0 1010.6 0.6 47
2019-06-01 10:00:00 22.6 11 Oeste 21 Oeste 0 1010.4 0.7 44
2019-06-01 09:00:00 21.5 4 Sudoeste 19 Sur 0 1010.2 0.4 49
2019-06-01 08:00:00 18 17 Sur 22 Sur 0 1010 0.1 56
2019-06-01 07:00:00 17.2 18 Sur 23 Sur 0 1009.7 -0.5 57
2019-06-01 06:00:00 17.3 14 Sur 21 Sur 0 1009.8 -0.7 58
2019-06-01 05:00:00 16.9 6 Sudeste 15 Sudeste 0 1009.9 -0.9 60
2019-06-01 04:00:00 17.6 10 Sudeste 19 Sudeste 0 1010.2 -1 61
2019-06-01 03:00:00 17.7 8 Sudeste 18 Sudeste 0 1010.5 -0.8 63
2019-06-01 02:00:00 18 7 Sur 15 Sudeste 0 1010.8 -0.4 74
2019-06-01 01:00:00 18.1 3 Sur 15 Oeste 0 1011.2 0.5 76
2019-06-01 00:00:00 18.4 13 Oeste 19 Oeste 0 1011.3 0.9 76
2019-05-31 23:00:00 18.4 13 Oeste 27 Oeste 0 1011.2 1.1 75
2019-05-31 22:00:00 18.6 24 Oeste 31 Oeste 0 1010.7 0.1 74
2019-05-31 21:00:00 22.8 9 Sudeste 28 Este 0 1010.4 -0.5 57
2019-05-31 20:00:00 22.3 17 Este 28 Este 0 1010.1 -1.2 58
2019-05-31 19:00:00 23 18 Este 28 Este 0 1010.6 -1.2 56
2019-05-31 18:00:00 22.5 17 Este 28 Este 0 1010.9 -1.4 61
2019-05-31 17:00:00 21.6 26 Este 37 Este 0 1011.3 -1.4 62
2019-05-31 16:00:00 20.4 21 Este 34 Este 0 1011.8 -1.3 69
2019-05-31 15:00:00 19.6 22 Este 33 Este 0 1012.3 -0.8 72
2019-05-31 14:00:00 19.1 20 Este 30 Este 0 1012.7 -0.7 76
2019-05-31 13:00:00 18.6 20 Este 25 Este 0 1013.1 -0.5 77
2019-05-31 12:00:00 18.7 16 Este 21 Este 0 1013.1 -0.5 74
2019-05-31 11:00:00 19.3 8 Este 13 Este 0 1013.4 -0.3 71
2019-05-31 10:00:00 17.8 8 Nordeste 11 Nordeste 0 1013.6 -0.1 76
2019-05-31 09:00:00 17.1 3 Oeste 14 Sur 0 1013.6 -0.1 79
2019-05-31 08:00:00 14.7 5 Sudeste 16 Sudeste 0 1013.7 -0.4 83
2019-05-31 07:00:00 14 10 Sudeste 19 Sudeste 0 1013.7 -1 85
2019-05-31 06:00:00 14.6 6 Este 20 Sudeste 0 1013.7 -1.4 87
2019-05-31 05:00:00 13.7 5 Sudeste 11 Este 0 1014.1 -1.5 86
2019-05-31 04:00:00 14.9 8 Este 12 Este 0 1014.7 -1.3 85
2019-05-31 03:00:00 15.6 6 Oeste 13 Noroeste 0 1015.1 -1.1 83
2019-05-31 02:00:00 15.9 10 Oeste 20 Oeste 0 1015.6 -0.3 83
2019-05-31 01:00:00 16 12 Oeste 19 Este 0 1016 0.6 81
2019-05-31 00:00:00 16.4 13 Este 33 Este 0 1016.2 1 79
2019-05-30 23:00:00 16.7 17 Este 36 Este 0 1015.9 0.8 78
2019-05-30 22:00:00 16.8 23 Este 42 Este 0 1015.4 -0.1 77
2019-05-30 21:00:00 17.6 23 Este 40 Este 0 1015.2 -0.5 74
2019-05-30 20:00:00 17.5 31 Este 43 Este 0 1015.1 -0.9 74
2019-05-30 19:00:00 18.6 24 Este 43 Este 0 1015.5 -0.8 71
2019-05-30 18:00:00 18.6 26 Este 39 Este 0 1015.7 -0.9 70
2019-05-30 17:00:00 18.8 19 Este 33 Este 0 1016 -0.8 70
2019-05-30 16:00:00 18.6 18 Este 33 Este 0 1016.3 -0.9 73
2019-05-30 15:00:00 18 23 Este 32 Este 0 1016.6 -1.1 77
2019-05-30 14:00:00 17.9 23 Este 32 Este 0 1016.8 -1 77
2019-05-30 13:00:00 17.9 17 Este 27 Este 0 1017.2 -0.6 76
2019-05-30 12:00:00 17.4 9 Nordeste 15 Nordeste 0 1017.7 0.1 77
2019-05-30 11:00:00 17.2 8 Nordeste 14 Nordeste 0 1017.8 0.7 79
2019-05-30 10:00:00 16.7 6 Nordeste 9 Nordeste 0 1017.8 0.8 78
2019-05-30 09:00:00 15.7 3 Este 14 Sur 0 1017.6 0.7 83
2019-05-30 08:00:00 13 7 Sudeste 11 Sur 0 1017.1 0.2 87
2019-05-30 07:00:00 12.3 6 Sur 10 Sur 0 1017 -0.2 87
2019-05-30 06:00:00 12.3 6 Sudoeste 10 Sudoeste 0 1016.9 -0.9 87
2019-05-30 05:00:00 12.5 5 Sur 14 Sudeste 0 1016.9 -1.1 86
2019-05-30 04:00:00 13.3 8 Sur 13 Sudoeste 0 1017.2 -0.9 84
2019-05-30 03:00:00 14.1 9 Sudoeste 14 Oeste 0 1017.8 -0.6 84
2019-05-30 02:00:00 13.7 7 Sudoeste 13 Sur 0 1018 -0.6 84
2019-05-30 01:00:00 14.1 5 Sudeste 13 Sudeste 0 1018.1 0.1 82
2019-05-30 00:00:00 14.1 10 Sudeste 25 Nordeste 0 1018.4 0.6 81
2019-05-29 23:00:00 15.4 17 Este 30 Nordeste 0 1018.6 0.9 84
2019-05-29 22:00:00 15.7 18 Nordeste 33 Nordeste 0 1018 0.1 81
2019-05-29 21:00:00 16.4 21 Nordeste 34 Nordeste 0 1017.8 -0.1 78
2019-05-29 20:00:00 16.9 17 Nordeste 36 Nordeste 0 1017.7 -0.5 75
2019-05-29 19:00:00 17.3 15 Nordeste 35 Nordeste 0 1017.9 -0.5 74
2019-05-29 18:00:00 17 20 Nordeste 35 Nordeste 0 1017.9 -1.1 75
2019-05-29 17:00:00 17.2 16 Nordeste 32 Nordeste 0 1018.2 -0.9 74
2019-05-29 16:00:00 17.2 17 Nordeste 33 Nordeste 0 1018.4 -1 76
2019-05-29 15:00:00 17 17 Nordeste 36 Nordeste 0 1019 -0.2 75
2019-05-29 14:00:00 17 19 Nordeste 32 Nordeste 0 1019.1 -0.1 74
2019-05-29 13:00:00 17.3 9 Nordeste 25 Nordeste 0 1019.4 0.3 73
2019-05-29 12:00:00 17.5 8 Nordeste 19 Nordeste 0 1019.2 0.4 70
2019-05-29 11:00:00 16.5 8 Nordeste 16 Nordeste 0 1019.2 0.6 65
2019-05-29 10:00:00 16.4 6 Nordeste 13 Sudeste 0 1019.1 0.8 65
2019-05-29 09:00:00 13.6 12 Sudeste 20 Sudeste 0 1018.8 0.5 73
2019-05-29 08:00:00 11.1 16 Sudeste 24 Sudeste 0 1018.6 0.3 80
2019-05-29 07:00:00 10.6 15 Sudeste 19 Sudeste 0 1018.3 -0.1 80
2019-05-29 06:00:00 11.1 15 Sudeste 21 Sur 0 1018.3 -0.2 80
2019-05-29 05:00:00 11.5 13 Sudeste 22 Sur 0 1018.3 -0.3 80
2019-05-29 04:00:00 11.5 14 Sudeste 20 Sur 0 1018.4 -0.2 83
2019-05-29 03:00:00 11.3 15 Sudeste 18 Sur 0 1018.5 -0.1 84
2019-05-29 02:00:00 11.4 14 Sudeste 18 Sudeste 0 1018.6 0 85
2019-05-29 01:00:00 11.7 13 Sudeste 17 Sudeste 0 1018.6 0.4 85
2019-05-29 00:00:00 11.9 11 Sudeste 15 Sur 0 1018.6 0.6 83
2019-05-28 23:00:00 14.1 3 Norte 8 Noroeste 0 1018.6 0.8 76
2019-05-28 22:00:00 14.7 4 Norte 11 Oeste 0 1018.2 0.8 73
2019-05-28 21:00:00 15.5 7 Noroeste 15 Oeste 0 1018 0.7 71
2019-05-28 20:00:00 16.2 10 Noroeste 19 Noroeste 0 1017.8 0.5 69
2019-05-28 19:00:00 16.8 9 Noroeste 17 Noroeste 0 1017.4 0.3 68
2019-05-28 18:00:00 16.9 10 Noroeste 17 Noroeste 0 1017.3 0.2 68
2019-05-28 17:00:00 17.1 9 Noroeste 22 Noroeste 0 1017.3 0.6 68
2019-05-28 16:00:00 17.3 11 Noroeste 20 Noroeste 0 1017.1 0.7 68
2019-05-28 15:00:00 16.7 17 Noroeste 22 Oeste 0 1017.1 1 71
2019-05-28 14:00:00 16.5 18 Noroeste 23 Noroeste 0 1016.7 0.8 70
2019-05-28 13:00:00 17.5 13 Oeste 19 Oeste 0 1016.4 1 72
2019-05-28 12:00:00 18.2 10 Oeste 19 Oeste 0 1016.1 1.1 73
2019-05-28 11:00:00 15.5 9 Oeste 15 Oeste 0 1015.9 1.2 77
2019-05-28 10:00:00 13.9 10 Sur 15 Sur 0 1015.4 1.2 82
2019-05-28 09:00:00 12.1 10 Sur 15 Sur 0 1015 1 83
2019-05-28 08:00:00 11.6 13 Sur 18 Sur 0 1014.7 0.9 84
2019-05-28 07:00:00 11.2 13 Sur 19 Sur 0 1014.2 0.4 86
2019-05-28 06:00:00 11.1 13 Sur 17 Sur 0 1014 0.2 86
2019-05-28 05:00:00 11.3 13 Sur 16 Sur 0 1013.8 -0.5 87
2019-05-28 04:00:00 11.4 13 Sur 16 Sur 0 1013.8 -0.5 87
2019-05-28 03:00:00 11.4 10 Sur 13 Sur 0 1013.8 -0.6 85
2019-05-28 02:00:00 11.6 7 Sur 10 Sur 0 1014.3 -0.1 84
2019-05-28 01:00:00 13.2 0 Calma 19 Norte 0 1014.3 0.4 77
2019-05-28 00:00:00 13.7 7 Noroeste 19 Norte 0 1014.4 0.6 76
2019-05-27 23:00:00 14 12 Norte 16 Norte 0 1014.4 0.9 76
2019-05-27 22:00:00 14.3 9 Noroeste 15 Oeste 0 1013.9 0.6 76
2019-05-27 21:00:00 14.5 6 Noroeste 16 Noroeste 0 1013.8 0.3 76
2019-05-27 20:00:00 14.7 12 Noroeste 14 Oeste 0 1013.5 0.3 75
2019-05-27 19:00:00 15.9 7 Noroeste 16 Noroeste 0 1013.3 0.1 74
2019-05-27 18:00:00 15.1 8 Noroeste 16 Noroeste 0 1013.5 0.2 78
2019-05-27 17:00:00 15.1 6 Noroeste 22 Noroeste 0 1013.2 -0.2 79
2019-05-27 16:00:00 14.8 12 Noroeste 27 Norte 0 1013.2 0.1 84
2019-05-27 15:00:00 14.7 18 Noroeste -- -- 0 1013.3 0.2 87
2019-05-27 14:00:00 16.4 13 Oeste 22 Oeste 0 1013.4 1 89
2019-05-27 13:00:00 15 15 Oeste 21 Oeste 0.6 1013.1 1.1 91
2019-05-27 12:00:00 14.8 13 Oeste 32 Noroeste 0.4 1013.1 1.3 91
2019-05-27 11:00:00 14.9 12 Noroeste 26 Oeste 0.6 1012.4 0.9 90
2019-05-27 10:00:00 15 19 Oeste 22 Sudoeste 0.8 1012 0.3 89
2019-05-27 09:00:00 14.8 13 Oeste 17 Oeste 0.4 1011.8 0.1 89
2019-05-27 08:00:00 13.6 12 Sur 15 Sur 0 1011.5 -0.5 87
2019-05-27 07:00:00 13.4 5 Sur 10 Sur 0.2 1011.7 -0.7 84
2019-05-27 06:00:00 13.5 6 Sur 13 Oeste 0 1011.7 -1.3 82
2019-05-27 05:00:00 13.4 6 Sudoeste 10 Sudoeste 0 1012 -1.6 81
2019-05-27 04:00:00 13.8 7 Sudoeste 13 Oeste 0 1012.4 -1.4 79
2019-05-27 03:00:00 13.9 10 Oeste 21 Oeste 0 1013 -1.5 79
2019-05-27 02:00:00 13.9 11 Sudoeste 15 Sudoeste 0 1013.6 -1.2 79
2019-05-27 01:00:00 14.2 9 Oeste 13 Oeste 0 1013.8 -1.1 78
2019-05-27 00:00:00 14.1 6 Oeste 9 Oeste 0 1014.5 -0.3 79
2019-05-26 23:00:00 14.1 5 Sur 8 Sur 0 1014.8 -0.1 78
2019-05-26 22:00:00 14.8 4 Oeste 14 Noroeste 0 1014.9 -0.4 77
2019-05-26 21:00:00 15.1 10 Noroeste 15 Noroeste 0 1014.8 -0.8 76
2019-05-26 20:00:00 15.8 5 Noroeste 16 Noroeste 0 1014.9 -0.9 74
2019-05-26 19:00:00 16.2 9 Noroeste 17 Oeste 0 1015.3 -0.7 73
2019-05-26 18:00:00 16.4 13 Noroeste 17 Oeste 0 1015.6 -0.7 72
2019-05-26 17:00:00 16.7 10 Noroeste 16 Oeste 0 1015.8 -1 70
2019-05-26 16:00:00 17.1 7 Oeste 12 Oeste 0 1016 -0.9 72
2019-05-26 15:00:00 17.6 8 Oeste 15 Oeste 0 1016.3 -0.7 76
2019-05-26 14:00:00 15.8 9 Oeste 22 Noroeste 0 1016.8 -0.4 78
2019-05-26 13:00:00 16.1 13 Oeste 20 Oeste 0 1016.9 -0.2 80
2019-05-26 12:00:00 17 12 Oeste 21 Oeste 0 1017 0.1 77
2019-05-26 11:00:00 15.5 8 Oeste 12 Oeste 0 1017.2 0.7 75
2019-05-26 10:00:00 14.4 2 Sudoeste 13 Sudeste 0 1017.1 0.7 77
2019-05-26 09:00:00 13.1 11 Sudeste 20 Sur 0 1016.9 0 80
2019-05-26 08:00:00 11.6 17 Sur 21 Sur 0 1016.5 -0.2 83
2019-05-26 07:00:00 10.5 18 Sur 21 Sur 0 1016.4 -0.6 85
2019-05-26 06:00:00 10.3 14 Sur 19 Sur 0 1016.9 -0.5 85
2019-05-26 05:00:00 10.1 15 Sudeste 20 Sudeste 0 1016.7 -1.1 85
2019-05-26 04:00:00 10.5 17 Sudeste 22 Sudeste 0 1017 -1.3 85
2019-05-26 03:00:00 10.6 15 Sudeste 19 Sur 0 1017.4 -1 85
2019-05-26 02:00:00 11.3 15 Sudeste 18 Sudeste 0 1017.8 -0.7 83
2019-05-26 01:00:00 11.7 13 Sudeste 18 Sudeste 0 1018.3 0.1 83
2019-05-26 00:00:00 12.2 12 Sudeste 16 Sudeste 0 1018.4 0.4 80
2019-05-25 23:00:00 12.9 9 Sudeste 11 Sur 0 1018.5 0.9 77
2019-05-25 22:00:00 14.9 3 Sudeste 6 Nordeste 0 1018.2 0.5 69
2019-05-25 21:00:00 16.4 4 Nordeste 12 Norte 0 1018 0.4 65
2019-05-25 20:00:00 16.4 6 Norte 12 Nordeste 0 1017.6 -0.2 66
2019-05-25 19:00:00 17.4 6 Nordeste 15 Nordeste 0 1017.7 -0.3 65
2019-05-25 18:00:00 17.5 7 Nordeste 15 Nordeste 0 1017.6 -0.6 62
2019-05-25 17:00:00 17.5 6 Norte 16 Nordeste 0 1017.8 -0.6 65
2019-05-25 16:00:00 17.8 6 Nordeste 51 Noroeste 0 1018 -0.5 66
2019-05-25 15:00:00 17.9 5 Norte 15 Norte 0 1018.2 -0.2 65
2019-05-25 14:00:00 17.6 5 Nordeste 11 Nordeste 0 1018.4 0.1 68
2019-05-25 13:00:00 17.4 5 Norte 10 Noroeste 0 1018.5 0.4 68
2019-05-25 12:00:00 17.2 4 Noroeste 13 Oeste 0 1018.4 0.6 72
2019-05-25 11:00:00 16.3 6 Noroeste 12 Noroeste 0 1018.3 0.7 74
2019-05-25 10:00:00 15.8 8 Nordeste 12 Nordeste 0 1018.1 1 77
2019-05-25 09:00:00 14.9 7 Nordeste 11 Nordeste 0 1017.8 0.9 81
2019-05-25 08:00:00 13.9 3 Oeste 17 Noroeste 0 1017.6 0.8 84
2019-05-25 07:00:00 13.7 5 Noroeste 24 Noroeste 0 1017.1 0.2 85
2019-05-25 06:00:00 13.9 12 Norte 21 Noroeste 0 1016.9 -0.3 86
2019-05-25 05:00:00 14.1 5 Noroeste 18 Noroeste 0 1016.8 -0.6 86
2019-05-25 04:00:00 13.8 5 Oeste 8 Oeste 0 1016.9 -0.7 86
2019-05-25 03:00:00 13.2 3 Oeste 5 Oeste 0 1017.2 -0.4 85
2019-05-25 02:00:00 13.9 2 Sudeste 8 Noroeste 0 1017.4 0.3 83
2019-05-25 01:00:00 14.5 2 Oeste 13 Noroeste 0 1017.6 1 83
2019-05-25 00:00:00 14.5 4 Oeste 15 Oeste 0 1017.6 1.5 84
2019-05-24 23:00:00 14.7 5 Sudoeste 26 Noroeste 0 1017.1 1.1 84
2019-05-24 22:00:00 15 6 Noroeste 17 Noroeste 0 1016.6 0.6 83
2019-05-24 21:00:00 15.3 5 Noroeste 10 Norte 0 1016.1 0.2 81
2019-05-24 20:00:00 15.8 6 Norte 15 Noroeste 0 1016 0.3 79
2019-05-24 19:00:00 16.5 8 Noroeste 18 Oeste 0 1016 0.4 76
2019-05-24 18:00:00 18.8 11 Oeste 26 Oeste 0 1015.9 0.2 71
2019-05-24 17:00:00 18.7 17 Oeste 28 Noroeste 0 1015.7 -0.2 71
2019-05-24 16:00:00 19.6 16 Oeste 28 Oeste 0 1015.6 -0.3 70
2019-05-24 15:00:00 19.2 13 Oeste 24 Noroeste 0 1015.7 0.4 69
2019-05-24 14:00:00 18 9 Oeste 30 Oeste 0 1015.9 0.8 72
2019-05-24 13:00:00 16.9 17 Oeste 30 Oeste 0 1015.9 0.5 75
2019-05-24 12:00:00 16.8 11 Oeste 25 Oeste 0 1015.3 0.4 75
2019-05-24 11:00:00 15.5 15 Oeste 28 Oeste 0 1015.1 0.4 73
2019-05-24 10:00:00 14.6 9 Oeste 18 Oeste 0 1015.4 1.2 74
2019-05-24 09:00:00 13.9 11 Sudoeste 23 Oeste 0 1014.9 1.4 75
2019-05-24 08:00:00 13.6 14 Sudoeste 25 Oeste 0 1014.7 1 78
2019-05-24 07:00:00 13.4 16 Oeste 26 Oeste 0 1014.2 0.2 80
2019-05-24 06:00:00 13.4 25 Oeste 34 Oeste 0 1013.5 -0.8 82
2019-05-24 05:00:00 13.6 10 Oeste 18 Oeste 0 1013.7 -0.9 81
2019-05-24 04:00:00 13.6 14 Oeste 18 Oeste 0 1014 -0.7 81
2019-05-24 03:00:00 13.8 12 Oeste 20 Oeste 0 1014.3 -0.6 82
2019-05-24 02:00:00 13.8 15 Oeste 32 Oeste 0 1014.6 0.1 83
2019-05-24 01:00:00 14.2 18 Oeste 34 Oeste 0 1014.7 0.6 82
2019-05-24 00:00:00 14.1 18 Oeste 28 Oeste 0 1014.9 0.6 76
2019-05-23 23:00:00 14.2 19 Oeste 29 Oeste 0 1014.5 0.8 76
2019-05-23 22:00:00 14.1 19 Oeste 40 Oeste 0 1014.1 0.6 76
2019-05-23 21:00:00 15 25 Oeste 42 Oeste 0 1014.3 1.1 75
2019-05-23 20:00:00 15.6 20 Oeste 45 Oeste 0 1013.7 1.4 75
2019-05-23 19:00:00 15.5 23 Oeste 46 Oeste 0 1013.5 1.5 75
2019-05-23 18:00:00 15.8 -- -- -- -- 0 1013.2 1 73
2019-05-23 17:00:00 17.8 -- -- -- -- 0 1012.3 0.5 70
2019-05-23 16:00:00 17.4 -- -- -- -- 0 1012 0 73
2019-05-23 15:00:00 18.4 -- -- -- -- 0 1012.2 0 71
2019-05-23 14:00:00 17.3 -- -- -- -- 0 1011.8 -0.2 76
2019-05-23 13:00:00 19.4 -- -- -- -- 0 1012 0.4 65
2019-05-23 12:00:00 19.4 -- -- -- -- 0 1012.2 0.9 63
2019-05-23 11:00:00 18.2 -- -- -- -- 0 1012 1.1 64
2019-05-23 10:00:00 16.1 -- -- -- -- 0 1011.6 0.9 75
2019-05-23 09:00:00 13.5 -- -- -- -- 0 1011.3 0.9 82
2019-05-23 08:00:00 12.2 -- -- -- -- 0 1010.9 0.5 84
2019-05-23 07:00:00 11.8 -- -- -- -- 0 1010.7 0.6 85
2019-05-23 06:00:00 11.8 -- -- -- -- 0 1010.4 0.2 83
2019-05-23 05:00:00 14.3 -- -- -- -- 0 1010.4 -0.1 80
2019-05-23 04:00:00 14.3 -- -- -- -- 0 1010.1 -0.4 76
2019-05-23 03:00:00 14.5 -- -- -- -- 0 1010.2 -0.5 73
2019-05-23 02:00:00 14.6 -- -- -- -- 0 1010.5 0 81
2019-05-23 01:00:00 14.4 -- -- -- -- 0 1010.5 0.5 87
2019-05-23 00:00:00 14.9 -- -- -- -- 0 1010.7 1.2 84
2019-05-22 23:00:00 15.6 -- -- -- -- 0 1010.5 1 81
2019-05-22 22:00:00 15.9 -- -- -- -- 0 1010 0.5 81
2019-05-22 21:00:00 16.6 5 Este 12 Este 0 1009.5 -0.3 78
2019-05-22 20:00:00 17.2 6 Este 15 Este 0 1009.5 -0.3 78
2019-05-22 19:00:00 16.5 13 Este 19 Este 0 1009.5 -0.4 80
2019-05-22 18:00:00 16.8 13 Este 23 Nordeste 0 1009.8 -0.5 79
2019-05-22 17:00:00 16.8 15 Este 22 Este 0 1009.8 -0.4 78
2019-05-22 16:00:00 16.4 12 Este 25 Este 0 1009.9 -0.6 79
2019-05-22 15:00:00 16.1 12 Nordeste 26 Nordeste 0 1010.3 -0.4 79
2019-05-22 14:00:00 15.9 15 Nordeste 26 Este 0 1010.2 -0.4 79
2019-05-22 13:00:00 16.1 12 Nordeste 20 Nordeste 0 1010.5 -0.1 77
2019-05-22 12:00:00 15.9 6 Noroeste 14 Oeste 0 1010.7 0.4 79
2019-05-22 11:00:00 15.1 8 Oeste -- -- 0 1010.6 0.3 79
2019-05-22 10:00:00 14.8 -- -- -- -- 0 1010.6 0.2 83
2019-05-22 09:00:00 13.4 -- -- -- -- 0 1010.3 -0.3 86
2019-05-22 08:00:00 10.6 -- -- -- -- 0 1010.3 -0.4 89
2019-05-22 07:00:00 9.7 -- -- -- -- 0 1010.4 -0.8 89
2019-05-22 06:00:00 10.2 -- -- -- -- 0 1010.6 -0.8 88
2019-05-22 05:00:00 10.5 -- -- -- -- 0 1010.7 -0.9 89
2019-05-22 04:00:00 10.3 -- -- -- -- 0 1011.2 -0.4 88
2019-05-22 03:00:00 10.3 -- -- -- -- 0 1011.4 -0.1 87
2019-05-22 02:00:00 11.3 -- -- -- -- 0 1011.6 0.1 87
2019-05-22 01:00:00 12.3 -- -- -- -- 0 1011.6 0.5 85
2019-05-22 00:00:00 13.4 -- -- -- -- 0 1011.5 0.7 85